createdAt,value
2019-05-30T00:01:14.972Z,17.87
2019-05-30T00:03:43.864Z,17.33
2019-05-30T00:06:12.771Z,16.50
2019-05-30T00:08:41.787Z,17.60
2019-05-30T00:11:10.595Z,17.67
2019-05-30T00:13:39.510Z,17.70
2019-05-30T00:16:08.432Z,17.73
2019-05-30T00:18:37.343Z,16.90
2019-05-30T00:21:06.247Z,16.87
2019-05-30T00:23:35.163Z,17.47
2019-05-30T00:26:04.083Z,16.60
2019-05-30T00:28:33.009Z,16.40
2019-05-30T00:31:02.562Z,17.07
2019-05-30T00:33:30.851Z,15.77
2019-05-30T00:35:59.924Z,16.53
2019-05-30T00:38:28.648Z,15.90
2019-05-30T00:40:57.814Z,16.23
2019-05-30T00:43:26.476Z,16.63
2019-05-30T00:45:55.889Z,20.67
2019-05-30T00:48:24.303Z,16.03
2019-05-30T00:50:53.234Z,18.97
2019-05-30T00:53:22.135Z,15.63
2019-05-30T00:55:51.076Z,17.00
2019-05-30T00:58:20.024Z,15.97
2019-05-30T01:00:48.937Z,19.47
2019-05-30T01:03:17.850Z,16.63
2019-05-30T01:05:46.780Z,17.73
2019-05-30T01:08:15.699Z,17.43
2019-05-30T01:10:44.591Z,16.67
2019-05-30T01:13:13.516Z,17.60
2019-05-30T01:15:42.441Z,17.40
2019-05-30T01:18:11.362Z,18.27
2019-05-30T01:20:40.277Z,17.17
2019-05-30T01:23:09.233Z,16.97
2019-05-30T01:25:38.136Z,17.63
2019-05-30T01:28:07.877Z,17.50
2019-05-30T01:30:36.002Z,17.83
2019-05-30T01:33:05.883Z,17.27
2019-05-30T01:35:33.872Z,18.40
2019-05-30T01:38:03.954Z,19.93
2019-05-30T01:40:31.795Z,17.67
2019-05-30T01:43:01.974Z,17.83
2019-05-30T01:45:29.565Z,18.77
2019-05-30T01:47:58.472Z,21.97
2019-05-30T01:50:27.421Z,18.73
2019-05-30T01:52:56.322Z,19.33
2019-05-30T01:55:25.238Z,19.70
2019-05-30T01:57:54.137Z,17.93
2019-05-30T02:00:23.645Z,15.73
2019-05-30T02:02:52.563Z,14.70
2019-05-30T02:05:21.492Z,14.43
2019-05-30T02:07:50.388Z,14.97
2019-05-30T02:10:19.313Z,13.50
2019-05-30T02:12:48.207Z,13.17
2019-05-30T02:15:17.280Z,13.57
2019-05-30T02:17:46.211Z,12.53
2019-05-30T02:20:15.107Z,12.67
2019-05-30T02:22:44.053Z,12.97
2019-05-30T02:25:12.973Z,11.77
2019-05-30T02:27:41.874Z,13.40
2019-05-30T02:30:14.297Z,12.20
2019-05-30T02:32:39.745Z,11.60
2019-05-30T02:35:12.156Z,12.33
2019-05-30T02:37:37.612Z,13.87
2019-05-30T02:40:09.913Z,11.90
2019-05-30T02:42:35.536Z,15.20
2019-05-30T02:45:05.743Z,12.67
2019-05-30T02:47:33.452Z,12.87
2019-05-30T02:50:04.036Z,13.63
2019-05-30T02:52:31.316Z,12.03
2019-05-30T02:55:01.804Z,11.10
2019-05-30T02:57:29.105Z,10.57
2019-05-30T02:59:58.020Z,11.90
2019-05-30T03:02:27.000Z,10.43
2019-05-30T03:04:55.835Z,10.50
2019-05-30T03:07:24.769Z,9.20
2019-05-30T03:09:53.651Z,8.53
2019-05-30T03:12:22.562Z,7.83
2019-05-30T03:14:51.441Z,8.23
2019-05-30T03:17:20.358Z,6.83
2019-05-30T03:19:49.278Z,7.40
2019-05-30T03:22:18.185Z,8.27
2019-05-30T03:24:47.069Z,7.77
2019-05-30T03:27:15.996Z,8.20
2019-05-30T03:29:44.885Z,7.07
2019-05-30T03:33:00.722Z,8.37
2019-05-30T03:34:42.706Z,9.57
2019-05-30T03:37:23.064Z,7.27
2019-05-30T03:39:40.505Z,8.77
2019-05-30T03:42:11.309Z,6.63
2019-05-30T03:44:38.320Z,7.30
2019-05-30T03:47:08.576Z,9.43
2019-05-30T03:49:36.434Z,6.70
2019-05-30T03:52:08.147Z,11.33
2019-05-30T03:54:34.434Z,8.70
2019-05-30T03:57:11.097Z,9.53
2019-05-30T03:59:41.061Z,7.07
2019-05-30T04:02:18.983Z,7.37
2019-05-30T04:04:48.551Z,6.77
2019-05-30T04:07:19.455Z,6.53
2019-05-30T04:09:46.525Z,7.45
2019-05-30T04:12:36.233Z,7.65
2019-05-30T04:15:07.974Z,8.33
2019-05-30T04:17:35.247Z,7.70
2019-05-30T04:20:07.006Z,7.83
2019-05-30T04:22:34.170Z,7.27
2019-05-30T04:25:03.133Z,10.43
2019-05-30T04:27:32.015Z,7.70
2019-05-30T04:30:00.916Z,8.13
2019-05-30T04:32:29.822Z,8.80
2019-05-30T04:34:58.730Z,8.07
2019-05-30T04:37:27.638Z,8.03
2019-05-30T04:39:56.531Z,7.93
2019-05-30T04:42:25.434Z,7.17
2019-05-30T04:44:54.312Z,6.30
2019-05-30T04:47:23.232Z,7.13
2019-05-30T04:49:52.125Z,7.07
2019-05-30T04:52:24.582Z,8.97
2019-05-30T04:54:49.946Z,6.57
2019-05-30T04:57:19.989Z,8.33
2019-05-30T04:59:47.733Z,7.17
2019-05-30T05:02:18.775Z,7.50
2019-05-30T05:04:45.522Z,7.20
2019-05-30T05:07:15.669Z,7.70
2019-05-30T05:09:43.338Z,8.13
2019-05-30T05:12:12.258Z,7.97
2019-05-30T05:14:41.160Z,7.90
2019-05-30T05:17:10.483Z,8.73
2019-05-30T05:19:39.391Z,7.63
2019-05-30T05:22:08.467Z,8.17
2019-05-30T05:24:37.360Z,8.03
2019-05-30T05:27:09.754Z,8.07
2019-05-30T05:29:35.358Z,8.97
2019-05-30T05:32:04.332Z,11.63
2019-05-30T05:34:33.236Z,11.33
2019-05-30T05:37:02.163Z,11.00
2019-05-30T05:39:31.054Z,9.83
2019-05-30T05:41:59.965Z,9.80
2019-05-30T05:44:28.870Z,10.00
2019-05-30T05:46:57.772Z,9.80
2019-05-30T05:49:26.656Z,10.80
2019-05-30T05:51:55.597Z,11.13
2019-05-30T05:54:25.013Z,10.87
2019-05-30T05:56:53.406Z,11.63
2019-05-30T05:59:23.017Z,12.00
2019-05-30T06:01:51.219Z,12.43
2019-05-30T06:04:21.123Z,12.73
2019-05-30T06:06:49.022Z,10.80
2019-05-30T06:09:18.354Z,11.87
2019-05-30T06:11:49.045Z,14.43
2019-05-30T06:14:15.730Z,13.70
2019-05-30T06:16:44.648Z,13.30
2019-05-30T06:19:13.546Z,12.63
2019-05-30T06:21:53.604Z,14.07
2019-05-30T06:24:11.410Z,12.67
2019-05-30T06:26:40.342Z,14.30
2019-05-30T06:29:09.267Z,14.47
2019-05-30T06:31:38.173Z,14.53
2019-05-30T06:34:07.310Z,14.37
2019-05-30T06:36:36.193Z,14.57
2019-05-30T06:39:08.053Z,13.97
2019-05-30T06:41:36.948Z,15.23
2019-05-30T06:44:06.061Z,16.63
2019-05-30T06:46:34.937Z,17.40
2019-05-30T06:49:03.913Z,18.53
2019-05-30T06:51:32.846Z,17.30
2019-05-30T06:54:01.757Z,19.77
2019-05-30T06:56:31.582Z,17.57
2019-05-30T06:58:59.547Z,15.70
2019-05-30T07:01:28.485Z,16.27
2019-05-30T07:03:57.537Z,15.80
2019-05-30T07:06:27.474Z,18.77
2019-05-30T07:08:55.180Z,16.80
2019-05-30T07:11:24.725Z,16.30
2019-05-30T07:13:53.013Z,16.53
2019-05-30T07:16:23.290Z,18.63
2019-05-30T07:18:50.833Z,16.17
2019-05-30T07:21:19.751Z,16.80
2019-05-30T07:23:48.643Z,20.67
2019-05-30T07:26:17.560Z,19.70
2019-05-30T07:28:46.450Z,18.30
2019-05-30T07:31:15.358Z,16.70
2019-05-30T07:33:44.279Z,17.37
2019-05-30T07:36:16.979Z,17.07
2019-05-30T07:38:49.063Z,18.93
2019-05-30T07:41:18.340Z,17.77
2019-05-30T07:43:47.554Z,21.33
2019-05-30T07:46:19.509Z,18.43
2019-05-30T07:48:51.176Z,18.23
2019-05-30T07:51:24.192Z,17.93
2019-05-30T07:53:51.903Z,20.23
2019-05-30T07:56:22.822Z,18.43
2019-05-30T07:58:52.099Z,19.47
2019-05-30T08:01:22.062Z,19.57
2019-05-30T08:03:51.160Z,20.80
2019-05-30T08:06:22.552Z,23.10
2019-05-30T08:08:56.504Z,19.33
2019-05-30T08:11:23.288Z,19.93
2019-05-30T08:13:52.374Z,23.73
2019-05-30T08:16:21.552Z,20.20
2019-05-30T08:18:50.502Z,22.40
2019-05-30T08:21:20.589Z,19.77
2019-05-30T08:23:52.264Z,20.17
2019-05-30T08:26:21.557Z,21.67
2019-05-30T08:28:55.254Z,20.63
2019-05-30T08:34:10.784Z,23.57
2019-05-30T08:36:40.205Z,20.73
2019-05-30T08:39:09.722Z,23.13
2019-05-30T08:41:39.506Z,24.33
2019-05-30T08:44:08.514Z,26.57
2019-05-30T08:46:46.595Z,22.93
2019-05-30T08:49:15.756Z,25.17
2019-05-30T08:51:47.673Z,24.20
2019-05-30T08:54:16.771Z,24.67
2019-05-30T08:56:50.815Z,23.90
2019-05-30T08:59:20.925Z,22.40
2019-05-30T09:01:53.337Z,22.77
2019-05-30T09:04:21.958Z,23.20
2019-05-30T09:06:51.353Z,21.13
2019-05-30T09:09:22.720Z,21.87
2019-05-30T09:11:52.005Z,25.32
2019-05-30T09:14:21.329Z,24.90
2019-05-30T09:16:51.151Z,23.93
2019-05-30T09:19:22.176Z,21.13
2019-05-30T09:21:49.288Z,20.90
2019-05-30T09:24:18.572Z,19.10
2019-05-30T09:26:50.312Z,20.20
2019-05-30T09:29:16.914Z,20.50
2019-05-30T09:31:48.748Z,20.53
2019-05-30T09:34:18.040Z,23.57
2019-05-30T09:36:47.212Z,22.27
2019-05-30T09:39:19.385Z,22.63
2019-05-30T09:41:48.009Z,21.27
2019-05-30T09:44:14.769Z,21.03
2019-05-30T09:46:44.307Z,23.37
2019-05-30T09:49:16.453Z,24.00
2019-05-30T09:51:45.230Z,24.03
2019-05-30T09:54:17.041Z,24.73
2019-05-30T09:56:48.554Z,23.43
2019-05-30T09:59:19.827Z,25.13
2019-05-30T10:01:50.159Z,25.57
2019-05-30T10:04:19.170Z,27.23
2019-05-30T10:06:53.908Z,23.07
2019-05-30T10:09:24.893Z,22.67
2019-05-30T10:11:59.989Z,22.23
2019-05-30T10:14:29.386Z,22.57
2019-05-30T10:16:58.380Z,21.30
2019-05-30T10:19:27.594Z,21.70
2019-05-30T10:21:57.282Z,22.17
2019-05-30T10:24:28.407Z,22.27
2019-05-30T10:26:59.861Z,21.80
2019-05-30T10:29:27.265Z,25.20
2019-05-30T10:31:56.967Z,20.77
2019-05-30T10:34:36.107Z,22.03
2019-05-30T10:37:05.369Z,21.10
2019-05-30T10:39:34.691Z,22.10
2019-05-30T10:42:06.668Z,21.57
2019-05-30T10:44:35.806Z,20.57
2019-05-30T10:47:04.971Z,19.33
2019-05-30T10:49:35.338Z,21.00
2019-05-30T10:52:05.749Z,22.43
2019-05-30T10:54:34.800Z,19.65
2019-05-30T10:57:03.905Z,20.10
2019-05-30T10:59:33.007Z,21.85
2019-05-30T11:02:07.198Z,20.80
2019-05-30T11:04:34.237Z,20.73
2019-05-30T11:07:22.841Z,20.45
2019-05-30T11:09:54.832Z,19.27
2019-05-30T11:12:23.832Z,18.93
2019-05-30T11:14:53.757Z,19.77
2019-05-30T11:17:22.798Z,19.32
2019-05-30T11:19:52.062Z,19.25
2019-05-30T11:22:21.096Z,18.60
2019-05-30T11:24:50.346Z,20.00
2019-05-30T11:27:19.203Z,19.33
2019-05-30T11:29:48.713Z,18.37
2019-05-30T11:32:19.893Z,18.77
2019-05-30T11:34:51.541Z,18.03
2019-05-30T11:37:23.097Z,20.35
2019-05-30T11:39:51.046Z,18.77
2019-05-30T11:42:19.668Z,19.50
2019-05-30T11:44:49.709Z,18.25
2019-05-30T11:47:18.668Z,17.57
2019-05-30T11:49:48.040Z,18.32
2019-05-30T11:52:19.499Z,21.37
2019-05-30T11:54:46.720Z,17.82
2019-05-30T11:57:17.799Z,17.87
2019-05-30T11:59:46.898Z,20.90
2019-05-30T12:02:16.268Z,19.52
2019-05-30T12:04:45.525Z,19.10
2019-05-30T12:07:14.776Z,18.27
2019-05-30T12:09:43.909Z,17.27
2019-05-30T12:12:13.375Z,20.20
2019-05-30T12:14:42.790Z,17.27
2019-05-30T12:17:11.912Z,20.10
2019-05-30T12:19:41.067Z,18.23
2019-05-30T12:22:12.159Z,17.30
2019-05-30T12:24:41.527Z,15.67
2019-05-30T12:27:10.717Z,15.43
2019-05-30T12:29:42.547Z,18.70
2019-05-30T12:32:12.182Z,15.20
2019-05-30T12:34:41.390Z,15.30
2019-05-30T12:37:10.471Z,15.47
2019-05-30T12:39:39.478Z,15.85
2019-05-30T12:42:11.433Z,15.03
2019-05-30T12:44:41.486Z,15.48
2019-05-30T12:47:10.757Z,15.03
2019-05-30T12:49:39.921Z,15.10
2019-05-30T12:52:11.700Z,17.70
2019-05-30T12:54:40.996Z,16.80
2019-05-30T12:57:10.091Z,15.45
2019-05-30T12:59:39.386Z,17.25
2019-05-30T13:02:11.331Z,16.93
2019-05-30T13:04:46.046Z,16.30
2019-05-30T13:07:17.390Z,17.48
2019-05-30T13:09:46.698Z,17.12
2019-05-30T13:12:18.304Z,16.90
2019-05-30T13:14:50.098Z,18.20
2019-05-30T13:17:19.279Z,18.40
2019-05-30T13:19:48.499Z,20.25
2019-05-30T13:22:20.790Z,19.62
2019-05-30T13:24:49.953Z,20.77
2019-05-30T13:27:19.267Z,18.85
2019-05-30T13:29:48.659Z,17.55
2019-05-30T13:32:17.672Z,18.90
2019-05-30T13:34:46.945Z,21.12
2019-05-30T13:37:15.963Z,18.70
2019-05-30T13:39:45.313Z,18.87
2019-05-30T13:42:16.449Z,19.77
2019-05-30T13:44:45.656Z,17.00
2019-05-30T13:47:14.736Z,16.50
2019-05-30T13:49:43.911Z,17.20
2019-05-30T13:52:13.257Z,19.25
2019-05-30T13:54:42.414Z,15.40
2019-05-30T13:57:16.744Z,16.12
2019-05-30T13:59:48.374Z,14.85
2019-05-30T14:02:17.700Z,13.53
2019-05-30T14:04:47.296Z,13.53
2019-05-30T14:07:16.475Z,14.43
2019-05-30T14:09:45.620Z,14.43
2019-05-30T14:12:14.972Z,13.08
2019-05-30T14:14:44.237Z,14.33
2019-05-30T14:17:13.787Z,13.00
2019-05-30T14:19:43.215Z,14.50
2019-05-30T14:22:12.301Z,12.80
2019-05-30T14:24:45.988Z,12.43
2019-05-30T14:27:15.244Z,12.53
2019-05-30T14:29:44.415Z,13.20
2019-05-30T14:32:14.038Z,12.82
2019-05-30T14:34:43.210Z,13.18
2019-05-30T14:37:12.646Z,14.35
2019-05-30T14:39:41.476Z,13.25
2019-05-30T14:42:11.423Z,13.58
2019-05-30T14:44:40.665Z,13.30
2019-05-30T14:47:12.456Z,12.88
2019-05-30T14:49:41.163Z,11.75
2019-05-30T14:52:11.723Z,11.65
2019-05-30T14:54:42.763Z,12.10
2019-05-30T14:57:13.047Z,12.95
2019-05-30T14:59:41.455Z,10.75
2019-05-30T15:02:17.449Z,10.48
2019-05-30T15:04:48.397Z,13.00
2019-05-30T15:07:17.603Z,13.15
2019-05-30T15:09:46.713Z,12.75
2019-05-30T15:12:18.827Z,10.98
2019-05-30T15:14:47.912Z,11.08
2019-05-30T15:17:19.370Z,12.20
2019-05-30T15:19:48.952Z,11.43
2019-05-30T15:22:20.629Z,12.60
2019-05-30T15:24:52.548Z,8.40
2019-05-30T15:27:21.743Z,8.88
2019-05-30T15:29:51.960Z,10.68
2019-05-30T15:32:23.514Z,9.55
2019-05-30T15:34:52.633Z,10.82
2019-05-30T15:37:21.747Z,10.90
2019-05-30T15:39:50.934Z,9.90
2019-05-30T15:42:21.936Z,7.92
2019-05-30T15:44:58.466Z,6.42
2019-05-30T15:47:29.919Z,8.00
2019-05-30T15:50:01.062Z,8.55
2019-05-30T15:52:30.179Z,8.50
2019-05-30T15:54:59.417Z,9.75
2019-05-30T15:57:28.506Z,6.60
2019-05-30T16:00:04.068Z,7.67
2019-05-30T16:02:33.341Z,8.00
2019-05-30T16:05:02.518Z,6.80
2019-05-30T16:07:31.539Z,6.87
2019-05-30T16:10:02.119Z,5.03
2019-05-30T16:12:33.446Z,5.42
2019-05-30T16:15:04.827Z,6.00
2019-05-30T16:17:34.297Z,4.47
2019-05-30T16:20:03.481Z,5.47
2019-05-30T16:22:32.387Z,4.50
2019-05-30T16:25:01.314Z,6.53
2019-05-30T16:27:31.208Z,6.53
2019-05-30T16:29:59.113Z,4.22
2019-05-30T16:32:28.013Z,4.85
2019-05-30T16:34:56.919Z,4.45
2019-05-30T16:37:26.346Z,5.12
2019-05-30T16:40:05.468Z,3.85
2019-05-30T16:42:23.611Z,3.67
2019-05-30T16:44:52.515Z,4.08
2019-05-30T16:47:22.458Z,4.30
2019-05-30T16:49:50.309Z,3.40
2019-05-30T16:52:19.320Z,3.08
2019-05-30T16:54:48.097Z,3.67
2019-05-30T16:57:17.046Z,3.55
2019-05-30T16:59:45.931Z,3.00
2019-05-30T17:02:14.882Z,3.12
2019-05-30T17:04:43.755Z,3.98
2019-05-30T17:07:12.674Z,3.62
2019-05-30T17:09:41.587Z,5.08
2019-05-30T17:12:10.492Z,3.72
2019-05-30T17:14:39.391Z,3.30
2019-05-30T17:17:08.376Z,3.98
2019-05-30T17:19:39.268Z,3.77
2019-05-30T17:22:06.284Z,3.60
2019-05-30T17:24:35.167Z,4.10
2019-05-30T17:27:04.109Z,5.37
2019-05-30T17:29:32.986Z,3.60
2019-05-30T17:32:01.867Z,3.80
2019-05-30T17:34:30.769Z,5.60
2019-05-30T17:36:59.684Z,6.35
2019-05-30T17:39:28.914Z,5.83
2019-05-30T17:41:57.462Z,4.03
2019-05-30T17:44:27.201Z,3.72
2019-05-30T17:46:55.254Z,4.03
2019-05-30T17:49:24.145Z,3.87
2019-05-30T17:51:53.046Z,4.17
2019-05-30T17:54:21.921Z,4.35
2019-05-30T17:56:50.813Z,4.20
2019-05-30T17:59:20.194Z,4.17
2019-05-30T18:01:48.622Z,3.50
2019-05-30T18:04:17.496Z,2.50
2019-05-30T18:06:46.401Z,2.85
2019-05-30T18:09:15.313Z,2.55
2019-05-30T18:11:44.194Z,4.33
2019-05-30T18:14:13.104Z,4.85
2019-05-30T18:16:42.015Z,4.78
2019-05-30T18:19:10.957Z,3.55
2019-05-30T18:21:39.844Z,4.67
2019-05-30T18:24:08.775Z,2.72
2019-05-30T18:26:37.641Z,4.00
2019-05-30T18:29:06.666Z,4.85
2019-05-30T18:31:35.555Z,3.33
2019-05-30T18:34:04.486Z,4.28
2019-05-30T18:36:33.388Z,5.05
2019-05-30T18:39:02.298Z,4.15
2019-05-30T18:41:31.201Z,4.83
2019-05-30T18:44:00.071Z,5.10
2019-05-30T18:46:29.203Z,6.17
2019-05-30T18:48:57.848Z,3.70
2019-05-30T18:51:26.757Z,3.37
2019-05-30T18:53:55.656Z,5.55
2019-05-30T18:56:24.630Z,7.70
2019-05-30T18:58:53.442Z,5.53
2019-05-30T19:01:22.348Z,3.30
2019-05-30T19:03:51.277Z,4.08
2019-05-30T19:06:20.139Z,4.45
2019-05-30T19:08:49.002Z,6.42
2019-05-30T19:11:27.299Z,4.37
2019-05-30T19:13:46.828Z,4.47
2019-05-30T19:16:15.712Z,5.08
2019-05-30T19:18:44.583Z,3.65
2019-05-30T19:21:13.515Z,4.90
2019-05-30T19:23:42.418Z,6.08
2019-05-30T19:26:11.627Z,3.98
2019-05-30T19:28:40.225Z,4.17
2019-05-30T19:31:09.188Z,6.05
2019-05-30T19:33:38.085Z,6.22
2019-05-30T19:36:07.093Z,5.33
2019-05-30T19:38:36.010Z,5.92
2019-05-30T19:41:04.968Z,5.78
2019-05-30T19:43:33.883Z,5.78
2019-05-30T19:46:02.770Z,4.47
2019-05-30T19:48:32.255Z,3.87
2019-05-30T19:51:00.543Z,4.78
2019-05-30T19:53:30.696Z,7.97
2019-05-30T19:55:58.328Z,4.60
2019-05-30T19:58:27.222Z,5.37
2019-05-30T20:00:58.952Z,7.20
2019-05-30T20:03:36.480Z,4.80
2019-05-30T20:05:54.047Z,5.42
2019-05-30T20:08:22.886Z,5.67
2019-05-30T20:10:51.783Z,6.85
2019-05-30T20:13:20.683Z,4.70
2019-05-30T20:15:49.593Z,5.30
2019-05-30T20:18:18.491Z,5.30
2019-05-30T20:20:56.968Z,4.53
2019-05-30T20:23:16.271Z,4.30
2019-05-30T20:25:46.081Z,6.67
2019-05-30T20:28:14.046Z,10.72
2019-05-30T20:30:43.317Z,6.92
2019-05-30T20:33:11.830Z,4.70
2019-05-30T20:35:42.151Z,5.80
2019-05-30T20:38:09.824Z,6.33
2019-05-30T20:40:38.926Z,6.58
2019-05-30T20:43:07.616Z,8.40
2019-05-30T20:45:39.555Z,9.05
2019-05-30T20:48:05.401Z,6.42
2019-05-30T20:50:35.012Z,6.62
2019-05-30T20:53:03.209Z,7.50
2019-05-30T20:55:32.196Z,8.73
2019-05-30T20:58:01.001Z,8.83
2019-05-30T21:00:37.786Z,8.08
2019-05-30T21:03:05.651Z,8.75
2019-05-30T21:05:35.627Z,8.30
2019-05-30T21:08:05.803Z,9.95
2019-05-30T21:10:32.428Z,6.70
2019-05-30T21:13:01.559Z,8.45
2019-05-30T21:15:32.146Z,10.15
2019-05-30T21:18:01.023Z,9.65
2019-05-30T21:20:29.926Z,8.98
2019-05-30T21:22:58.819Z,10.63
2019-05-30T21:25:27.696Z,8.55
2019-05-30T21:27:56.598Z,11.48
2019-05-30T21:30:25.503Z,8.70
2019-05-30T21:32:54.563Z,8.90
2019-05-30T21:35:23.445Z,7.60
2019-05-30T21:37:52.293Z,7.28
2019-05-30T21:40:21.175Z,10.20
2019-05-30T21:43:04.852Z,11.03
2019-05-30T21:45:18.976Z,9.85
2019-05-30T21:47:48.933Z,10.32
2019-05-30T21:50:16.754Z,9.30
2019-05-30T21:52:46.311Z,8.03
2019-05-30T21:55:14.594Z,8.25
2019-05-30T21:57:43.926Z,9.88
2019-05-30T22:00:13.375Z,7.92
2019-05-30T22:02:42.327Z,10.68
2019-05-30T22:05:11.193Z,11.78
2019-05-30T22:07:40.924Z,7.10
2019-05-30T22:10:09.003Z,5.60
2019-05-30T22:12:37.891Z,10.00
2019-05-30T22:15:06.848Z,10.50
2019-05-30T22:17:35.731Z,10.23
2019-05-30T22:20:05.064Z,7.72
2019-05-30T22:22:33.955Z,9.00
2019-05-30T22:25:02.869Z,9.30
2019-05-30T22:27:31.768Z,10.32
2019-05-30T22:30:00.658Z,6.67
2019-05-30T22:32:29.561Z,8.68
2019-05-30T22:34:58.452Z,8.08
2019-05-30T22:37:27.331Z,9.18
2019-05-30T22:39:56.259Z,8.45
2019-05-30T22:42:25.137Z,9.45
2019-05-30T22:44:54.036Z,11.80
2019-05-30T22:47:22.913Z,8.75
2019-05-30T22:49:52.940Z,8.20
2019-05-30T22:52:20.713Z,11.38
2019-05-30T22:54:49.609Z,8.43
2019-05-30T22:57:18.479Z,9.38
2019-05-30T22:59:47.370Z,8.53
2019-05-30T23:02:16.273Z,7.05
2019-05-30T23:04:45.978Z,8.90
2019-05-30T23:07:14.057Z,9.85
2019-05-30T23:09:43.167Z,11.45
2019-05-30T23:12:12.057Z,9.48
2019-05-30T23:14:40.956Z,9.05
2019-05-30T23:17:09.886Z,8.45
2019-05-30T23:19:38.769Z,7.12
2019-05-30T23:22:07.672Z,9.90
2019-05-30T23:24:36.572Z,7.53
2019-05-30T23:27:08.254Z,9.90
2019-05-30T23:29:34.387Z,8.33
2019-05-30T23:32:03.308Z,6.45
2019-05-30T23:34:32.186Z,9.30
2019-05-30T23:37:01.101Z,7.75
2019-05-30T23:39:30.019Z,6.37
2019-05-30T23:41:59.332Z,9.75
2019-05-30T23:44:27.841Z,8.90
2019-05-30T23:46:57.838Z,5.72
2019-05-30T23:49:25.634Z,9.43
2019-05-30T23:51:54.753Z,6.55
2019-05-30T23:54:23.438Z,6.75
2019-05-30T23:56:52.461Z,10.40
2019-05-30T23:59:21.236Z,7.75
